sensor_id;sensor_type;location;lat;lon;timestamp;P1;durP1;ratioP1;P2;durP2;ratioP2
54921;SDS011;40824;45.116;21.296;2023-03-03T00:00:22;24.95;;;16.17;;
54921;SDS011;40824;45.116;21.296;2023-03-03T00:02:48;29.77;;;17.58;;
54921;SDS011;40824;45.116;21.296;2023-03-03T00:05:14;24.67;;;17.02;;
54921;SDS011;40824;45.116;21.296;2023-03-03T00:07:45;27.63;;;18.10;;
54921;SDS011;40824;45.116;21.296;2023-03-03T00:10:13;24.40;;;17.08;;
54921;SDS011;40824;45.116;21.296;2023-03-03T00:12:44;25.73;;;18.20;;
54921;SDS011;40824;45.116;21.296;2023-03-03T00:15:18;25.33;;;17.90;;
54921;SDS011;40824;45.116;21.296;2023-03-03T00:17:45;27.10;;;17.75;;
54921;SDS011;40824;45.116;21.296;2023-03-03T00:22:50;25.75;;;18.20;;
54921;SDS011;40824;45.116;21.296;2023-03-03T00:25:29;22.88;;;17.10;;
54921;SDS011;40824;45.116;21.296;2023-03-03T00:30:55;24.73;;;18.08;;
54921;SDS011;40824;45.116;21.296;2023-03-03T00:33:24;25.98;;;18.65;;
54921;SDS011;40824;45.116;21.296;2023-03-03T00:35:54;27.27;;;19.38;;
54921;SDS011;40824;45.116;21.296;2023-03-03T00:38:20;27.83;;;18.70;;
54921;SDS011;40824;45.116;21.296;2023-03-03T00:40:47;31.60;;;20.35;;
54921;SDS011;40824;45.116;21.296;2023-03-03T00:43:16;27.70;;;19.17;;
54921;SDS011;40824;45.116;21.296;2023-03-03T00:45:44;26.30;;;16.98;;
54921;SDS011;40824;45.116;21.296;2023-03-03T00:50:46;29.40;;;18.67;;
54921;SDS011;40824;45.116;21.296;2023-03-03T00:53:13;27.15;;;19.77;;
54921;SDS011;40824;45.116;21.296;2023-03-03T00:55:43;25.67;;;17.67;;
54921;SDS011;40824;45.116;21.296;2023-03-03T00:58:10;28.67;;;20.52;;
54921;SDS011;40824;45.116;21.296;2023-03-03T01:00:37;29.92;;;20.13;;
54921;SDS011;40824;45.116;21.296;2023-03-03T01:03:04;26.30;;;18.55;;
54921;SDS011;40824;45.116;21.296;2023-03-03T01:05:31;28.23;;;19.60;;
54921;SDS011;40824;45.116;21.296;2023-03-03T01:07:57;27.92;;;20.02;;
54921;SDS011;40824;45.116;21.296;2023-03-03T01:10:24;25.95;;;19.13;;
54921;SDS011;40824;45.116;21.296;2023-03-03T01:12:51;28.92;;;20.45;;
54921;SDS011;40824;45.116;21.296;2023-03-03T01:15:17;27.45;;;19.55;;
54921;SDS011;40824;45.116;21.296;2023-03-03T01:17:43;29.02;;;18.80;;
54921;SDS011;40824;45.116;21.296;2023-03-03T01:20:13;31.77;;;20.45;;
54921;SDS011;40824;45.116;21.296;2023-03-03T01:22:40;30.55;;;19.65;;
54921;SDS011;40824;45.116;21.296;2023-03-03T01:25:06;28.33;;;18.95;;
54921;SDS011;40824;45.116;21.296;2023-03-03T01:27:33;28.17;;;18.95;;
54921;SDS011;40824;45.116;21.296;2023-03-03T01:30:01;27.83;;;19.40;;
54921;SDS011;40824;45.116;21.296;2023-03-03T01:32:27;27.38;;;19.15;;
54921;SDS011;40824;45.116;21.296;2023-03-03T01:34:54;28.00;;;19.85;;
54921;SDS011;40824;45.116;21.296;2023-03-03T01:37:20;28.50;;;18.63;;
54921;SDS011;40824;45.116;21.296;2023-03-03T01:39:47;24.40;;;18.25;;
54921;SDS011;40824;45.116;21.296;2023-03-03T01:42:14;26.33;;;18.00;;
54921;SDS011;40824;45.116;21.296;2023-03-03T01:44:40;24.52;;;17.13;;
54921;SDS011;40824;45.116;21.296;2023-03-03T01:47:16;25.33;;;18.25;;
54921;SDS011;40824;45.116;21.296;2023-03-03T01:52:30;25.90;;;18.58;;
54921;SDS011;40824;45.116;21.296;2023-03-03T01:54:59;29.02;;;17.73;;
54921;SDS011;40824;45.116;21.296;2023-03-03T01:57:27;25.58;;;17.33;;
54921;SDS011;40824;45.116;21.296;2023-03-03T01:59:56;26.02;;;17.20;;
54921;SDS011;40824;45.116;21.296;2023-03-03T02:02:24;26.55;;;18.17;;
54921;SDS011;40824;45.116;21.296;2023-03-03T02:04:52;25.10;;;16.90;;
54921;SDS011;40824;45.116;21.296;2023-03-03T02:07:18;27.63;;;16.33;;
54921;SDS011;40824;45.116;21.296;2023-03-03T02:12:15;25.98;;;16.13;;
54921;SDS011;40824;45.116;21.296;2023-03-03T02:14:42;25.23;;;16.67;;
54921;SDS011;40824;45.116;21.296;2023-03-03T02:17:08;23.17;;;14.95;;
54921;SDS011;40824;45.116;21.296;2023-03-03T02:19:46;24.65;;;17.40;;
54921;SDS011;40824;45.116;21.296;2023-03-03T02:22:16;23.40;;;15.95;;
54921;SDS011;40824;45.116;21.296;2023-03-03T02:24:58;25.02;;;15.63;;
54921;SDS011;40824;45.116;21.296;2023-03-03T02:27:26;23.48;;;16.13;;
54921;SDS011;40824;45.116;21.296;2023-03-03T02:29:55;24.85;;;16.40;;
54921;SDS011;40824;45.116;21.296;2023-03-03T02:32:22;23.55;;;16.45;;
54921;SDS011;40824;45.116;21.296;2023-03-03T02:34:49;27.40;;;16.92;;
54921;SDS011;40824;45.116;21.296;2023-03-03T02:37:16;22.80;;;16.73;;
54921;SDS011;40824;45.116;21.296;2023-03-03T02:39:43;20.58;;;15.68;;
54921;SDS011;40824;45.116;21.296;2023-03-03T02:42:22;24.77;;;15.82;;
54921;SDS011;40824;45.116;21.296;2023-03-03T02:44:50;23.23;;;16.55;;
54921;SDS011;40824;45.116;21.296;2023-03-03T02:47:16;22.77;;;16.10;;
54921;SDS011;40824;45.116;21.296;2023-03-03T02:49:43;23.45;;;15.95;;
54921;SDS011;40824;45.116;21.296;2023-03-03T02:52:09;25.90;;;16.52;;
54921;SDS011;40824;45.116;21.296;2023-03-03T02:54:36;21.65;;;15.27;;
54921;SDS011;40824;45.116;21.296;2023-03-03T02:57:03;23.33;;;16.20;;
54921;SDS011;40824;45.116;21.296;2023-03-03T02:59:29;24.50;;;16.85;;
54921;SDS011;40824;45.116;21.296;2023-03-03T03:01:55;24.67;;;16.70;;
54921;SDS011;40824;45.116;21.296;2023-03-03T03:04:23;25.38;;;17.23;;
54921;SDS011;40824;45.116;21.296;2023-03-03T03:06:49;29.52;;;17.85;;
54921;SDS011;40824;45.116;21.296;2023-03-03T03:09:16;24.85;;;16.38;;
54921;SDS011;40824;45.116;21.296;2023-03-03T03:11:43;25.23;;;17.05;;
54921;SDS011;40824;45.116;21.296;2023-03-03T03:14:10;25.10;;;16.88;;
54921;SDS011;40824;45.116;21.296;2023-03-03T03:16:37;25.38;;;16.20;;
54921;SDS011;40824;45.116;21.296;2023-03-03T03:19:03;25.02;;;17.45;;
54921;SDS011;40824;45.116;21.296;2023-03-03T03:21:29;26.33;;;16.95;;
54921;SDS011;40824;45.116;21.296;2023-03-03T03:23:56;24.58;;;17.30;;
54921;SDS011;40824;45.116;21.296;2023-03-03T03:26:22;26.88;;;17.08;;
54921;SDS011;40824;45.116;21.296;2023-03-03T03:28:48;25.70;;;17.48;;
54921;SDS011;40824;45.116;21.296;2023-03-03T03:31:16;27.73;;;18.55;;
54921;SDS011;40824;45.116;21.296;2023-03-03T03:33:42;28.27;;;19.80;;
54921;SDS011;40824;45.116;21.296;2023-03-03T03:36:08;27.90;;;18.25;;
54921;SDS011;40824;45.116;21.296;2023-03-03T03:38:35;27.45;;;18.10;;
54921;SDS011;40824;45.116;21.296;2023-03-03T03:41:03;26.17;;;18.17;;
54921;SDS011;40824;45.116;21.296;2023-03-03T03:43:29;25.23;;;17.23;;
54921;SDS011;40824;45.116;21.296;2023-03-03T03:45:55;23.55;;;16.67;;
54921;SDS011;40824;45.116;21.296;2023-03-03T03:48:21;26.55;;;18.17;;
54921;SDS011;40824;45.116;21.296;2023-03-03T03:50:48;26.52;;;17.50;;
54921;SDS011;40824;45.116;21.296;2023-03-03T03:53:14;25.08;;;17.10;;
54921;SDS011;40824;45.116;21.296;2023-03-03T03:55:41;27.70;;;17.75;;
54921;SDS011;40824;45.116;21.296;2023-03-03T03:58:07;27.80;;;18.20;;
54921;SDS011;40824;45.116;21.296;2023-03-03T04:00:34;25.25;;;17.15;;
54921;SDS011;40824;45.116;21.296;2023-03-03T04:03:00;24.75;;;17.67;;
54921;SDS011;40824;45.116;21.296;2023-03-03T04:05:26;24.08;;;16.60;;
54921;SDS011;40824;45.116;21.296;2023-03-03T04:07:52;21.65;;;15.65;;
54921;SDS011;40824;45.116;21.296;2023-03-03T04:10:18;26.38;;;17.73;;
54921;SDS011;40824;45.116;21.296;2023-03-03T04:12:44;25.10;;;17.75;;
54921;SDS011;40824;45.116;21.296;2023-03-03T04:15:11;28.95;;;18.55;;
54921;SDS011;40824;45.116;21.296;2023-03-03T04:17:38;26.38;;;16.90;;
54921;SDS011;40824;45.116;21.296;2023-03-03T04:20:04;23.70;;;17.42;;
54921;SDS011;40824;45.116;21.296;2023-03-03T04:22:31;26.17;;;18.13;;
54921;SDS011;40824;45.116;21.296;2023-03-03T04:25:00;26.05;;;18.90;;
54921;SDS011;40824;45.116;21.296;2023-03-03T04:27:30;24.00;;;18.73;;
54921;SDS011;40824;45.116;21.296;2023-03-03T04:29:56;32.17;;;20.38;;
54921;SDS011;40824;45.116;21.296;2023-03-03T04:32:23;32.00;;;20.30;;
54921;SDS011;40824;45.116;21.296;2023-03-03T04:34:49;30.15;;;20.75;;
54921;SDS011;40824;45.116;21.296;2023-03-03T04:37:15;29.85;;;21.23;;
54921;SDS011;40824;45.116;21.296;2023-03-03T04:39:44;30.17;;;19.05;;
54921;SDS011;40824;45.116;21.296;2023-03-03T04:42:10;29.42;;;21.77;;
54921;SDS011;40824;45.116;21.296;2023-03-03T04:44:36;30.13;;;21.67;;
54921;SDS011;40824;45.116;21.296;2023-03-03T04:47:02;30.65;;;19.88;;
54921;SDS011;40824;45.116;21.296;2023-03-03T04:49:28;30.40;;;20.15;;
54921;SDS011;40824;45.116;21.296;2023-03-03T04:51:55;27.40;;;20.17;;
54921;SDS011;40824;45.116;21.296;2023-03-03T04:54:21;30.23;;;21.55;;
54921;SDS011;40824;45.116;21.296;2023-03-03T04:56:47;28.00;;;18.98;;
54921;SDS011;40824;45.116;21.296;2023-03-03T04:59:14;32.35;;;21.10;;
54921;SDS011;40824;45.116;21.296;2023-03-03T05:01:42;30.85;;;19.63;;
54921;SDS011;40824;45.116;21.296;2023-03-03T05:04:10;28.10;;;20.98;;
54921;SDS011;40824;45.116;21.296;2023-03-03T05:06:36;32.15;;;21.60;;
54921;SDS011;40824;45.116;21.296;2023-03-03T05:09:02;31.05;;;21.23;;
54921;SDS011;40824;45.116;21.296;2023-03-03T05:11:28;30.98;;;20.25;;
54921;SDS011;40824;45.116;21.296;2023-03-03T05:13:56;29.48;;;18.85;;
54921;SDS011;40824;45.116;21.296;2023-03-03T05:16:32;31.42;;;20.85;;
54921;SDS011;40824;45.116;21.296;2023-03-03T05:18:58;29.30;;;18.80;;
54921;SDS011;40824;45.116;21.296;2023-03-03T05:21:26;28.02;;;20.75;;
54921;SDS011;40824;45.116;21.296;2023-03-03T05:23:52;29.75;;;19.98;;
54921;SDS011;40824;45.116;21.296;2023-03-03T05:26:18;30.13;;;19.13;;
54921;SDS011;40824;45.116;21.296;2023-03-03T05:28:47;29.33;;;18.30;;
54921;SDS011;40824;45.116;21.296;2023-03-03T05:31:13;30.27;;;20.70;;
54921;SDS011;40824;45.116;21.296;2023-03-03T05:33:39;32.42;;;21.90;;
54921;SDS011;40824;45.116;21.296;2023-03-03T05:36:08;30.95;;;21.92;;
54921;SDS011;40824;45.116;21.296;2023-03-03T05:38:35;33.78;;;22.80;;
54921;SDS011;40824;45.116;21.296;2023-03-03T05:41:03;32.60;;;22.65;;
54921;SDS011;40824;45.116;21.296;2023-03-03T05:43:32;30.67;;;21.85;;
54921;SDS011;40824;45.116;21.296;2023-03-03T05:45:58;39.85;;;26.50;;
54921;SDS011;40824;45.116;21.296;2023-03-03T05:48:25;43.67;;;29.30;;
54921;SDS011;40824;45.116;21.296;2023-03-03T05:50:51;36.67;;;26.67;;
54921;SDS011;40824;45.116;21.296;2023-03-03T05:53:17;54.60;;;36.47;;
54921;SDS011;40824;45.116;21.296;2023-03-03T05:55:43;69.20;;;42.22;;
54921;SDS011;40824;45.116;21.296;2023-03-03T05:58:10;49.67;;;30.08;;
54921;SDS011;40824;45.116;21.296;2023-03-03T06:00:36;33.38;;;22.92;;
54921;SDS011;40824;45.116;21.296;2023-03-03T06:03:02;38.83;;;24.90;;
54921;SDS011;40824;45.116;21.296;2023-03-03T06:05:29;39.55;;;24.92;;
54921;SDS011;40824;45.116;21.296;2023-03-03T06:07:55;49.03;;;28.85;;
54921;SDS011;40824;45.116;21.296;2023-03-03T06:10:21;106.90;;;53.15;;
54921;SDS011;40824;45.116;21.296;2023-03-03T06:12:47;33.42;;;21.67;;
54921;SDS011;40824;45.116;21.296;2023-03-03T06:15:13;31.63;;;22.63;;
54921;SDS011;40824;45.116;21.296;2023-03-03T06:17:39;38.08;;;24.08;;
54921;SDS011;40824;45.116;21.296;2023-03-03T06:20:06;32.90;;;23.63;;
54921;SDS011;40824;45.116;21.296;2023-03-03T06:22:32;32.90;;;23.33;;
54921;SDS011;40824;45.116;21.296;2023-03-03T06:24:58;28.20;;;21.23;;
54921;SDS011;40824;45.116;21.296;2023-03-03T06:27:25;31.15;;;22.23;;
54921;SDS011;40824;45.116;21.296;2023-03-03T06:29:51;34.15;;;23.65;;
54921;SDS011;40824;45.116;21.296;2023-03-03T06:32:17;38.13;;;25.55;;
54921;SDS011;40824;45.116;21.296;2023-03-03T06:34:43;34.72;;;23.55;;
54921;SDS011;40824;45.116;21.296;2023-03-03T06:37:11;33.05;;;22.60;;
54921;SDS011;40824;45.116;21.296;2023-03-03T06:39:38;31.42;;;22.40;;
54921;SDS011;40824;45.116;21.296;2023-03-03T06:42:04;31.17;;;21.67;;
54921;SDS011;40824;45.116;21.296;2023-03-03T06:44:31;29.55;;;19.45;;
54921;SDS011;40824;45.116;21.296;2023-03-03T06:47:02;58.72;;;32.05;;
54921;SDS011;40824;45.116;21.296;2023-03-03T06:49:29;44.92;;;29.13;;
54921;SDS011;40824;45.116;21.296;2023-03-03T06:51:57;65.45;;;35.38;;
54921;SDS011;40824;45.116;21.296;2023-03-03T06:54:26;40.58;;;23.98;;
54921;SDS011;40824;45.116;21.296;2023-03-03T06:56:54;47.05;;;30.45;;
54921;SDS011;40824;45.116;21.296;2023-03-03T06:59:22;50.05;;;32.45;;
54921;SDS011;40824;45.116;21.296;2023-03-03T07:01:49;79.03;;;40.85;;
54921;SDS011;40824;45.116;21.296;2023-03-03T07:04:21;51.45;;;33.65;;
54921;SDS011;40824;45.116;21.296;2023-03-03T07:06:50;62.70;;;38.30;;
54921;SDS011;40824;45.116;21.296;2023-03-03T07:09:20;76.47;;;43.70;;
54921;SDS011;40824;45.116;21.296;2023-03-03T07:11:48;84.78;;;48.67;;
54921;SDS011;40824;45.116;21.296;2023-03-03T07:14:15;63.63;;;38.20;;
54921;SDS011;40824;45.116;21.296;2023-03-03T07:16:44;101.63;;;52.80;;
54921;SDS011;40824;45.116;21.296;2023-03-03T07:19:16;88.72;;;54.33;;
54921;SDS011;40824;45.116;21.296;2023-03-03T07:21:43;125.88;;;61.80;;
54921;SDS011;40824;45.116;21.296;2023-03-03T07:24:26;56.75;;;31.83;;
54921;SDS011;40824;45.116;21.296;2023-03-03T07:27:38;51.53;;;30.35;;
54921;SDS011;40824;45.116;21.296;2023-03-03T07:29:39;91.68;;;40.50;;
54921;SDS011;40824;45.116;21.296;2023-03-03T07:32:13;40.05;;;25.77;;
54921;SDS011;40824;45.116;21.296;2023-03-03T07:34:50;96.30;;;39.83;;
54921;SDS011;40824;45.116;21.296;2023-03-03T07:39:56;55.67;;;29.00;;
54921;SDS011;40824;45.116;21.296;2023-03-03T07:44:52;109.20;;;52.20;;
54921;SDS011;40824;45.116;21.296;2023-03-03T07:47:34;82.35;;;41.95;;
54921;SDS011;40824;45.116;21.296;2023-03-03T07:50:12;49.95;;;31.85;;
54921;SDS011;40824;45.116;21.296;2023-03-03T07:52:42;67.90;;;38.67;;
54921;SDS011;40824;45.116;21.296;2023-03-03T07:55:24;77.38;;;39.55;;
54921;SDS011;40824;45.116;21.296;2023-03-03T07:57:52;54.42;;;34.72;;
54921;SDS011;40824;45.116;21.296;2023-03-03T08:02:57;50.38;;;29.45;;
54921;SDS011;40824;45.116;21.296;2023-03-03T08:05:35;38.92;;;26.67;;
54921;SDS011;40824;45.116;21.296;2023-03-03T08:08:47;94.53;;;57.22;;
54921;SDS011;40824;45.116;21.296;2023-03-03T08:10:51;49.92;;;29.15;;
54921;SDS011;40824;45.116;21.296;2023-03-03T08:13:19;52.22;;;30.83;;
54921;SDS011;40824;45.116;21.296;2023-03-03T08:15:46;36.05;;;26.17;;
54921;SDS011;40824;45.116;21.296;2023-03-03T08:21:05;72.68;;;35.13;;
54921;SDS011;40824;45.116;21.296;2023-03-03T08:23:33;33.13;;;21.55;;
54921;SDS011;40824;45.116;21.296;2023-03-03T08:25:59;38.50;;;23.95;;
54921;SDS011;40824;45.116;21.296;2023-03-03T08:28:27;58.38;;;31.08;;
54921;SDS011;40824;45.116;21.296;2023-03-03T08:30:53;74.43;;;37.95;;
54921;SDS011;40824;45.116;21.296;2023-03-03T08:33:19;38.67;;;25.17;;
54921;SDS011;40824;45.116;21.296;2023-03-03T08:35:45;72.53;;;34.97;;
54921;SDS011;40824;45.116;21.296;2023-03-03T08:38:12;51.03;;;29.33;;
54921;SDS011;40824;45.116;21.296;2023-03-03T08:40:38;79.78;;;39.95;;
54921;SDS011;40824;45.116;21.296;2023-03-03T08:43:05;36.13;;;24.80;;
54921;SDS011;40824;45.116;21.296;2023-03-03T08:45:34;33.05;;;21.15;;
54921;SDS011;40824;45.116;21.296;2023-03-03T08:48:02;33.45;;;21.83;;
54921;SDS011;40824;45.116;21.296;2023-03-03T08:50:28;31.13;;;21.00;;
54921;SDS011;40824;45.116;21.296;2023-03-03T08:52:55;46.45;;;29.52;;
54921;SDS011;40824;45.116;21.296;2023-03-03T08:55:21;37.33;;;23.85;;
54921;SDS011;40824;45.116;21.296;2023-03-03T08:57:47;61.72;;;37.05;;
54921;SDS011;40824;45.116;21.296;2023-03-03T09:02:41;49.72;;;28.55;;
54921;SDS011;40824;45.116;21.296;2023-03-03T09:05:08;51.75;;;30.73;;
54921;SDS011;40824;45.116;21.296;2023-03-03T09:07:35;52.38;;;28.15;;
54921;SDS011;40824;45.116;21.296;2023-03-03T09:10:01;54.83;;;29.70;;
54921;SDS011;40824;45.116;21.296;2023-03-03T09:12:32;44.47;;;26.33;;
54921;SDS011;40824;45.116;21.296;2023-03-03T09:14:59;40.90;;;26.73;;
54921;SDS011;40824;45.116;21.296;2023-03-03T09:17:32;36.00;;;24.33;;
54921;SDS011;40824;45.116;21.296;2023-03-03T09:19:59;31.83;;;22.92;;
54921;SDS011;40824;45.116;21.296;2023-03-03T09:22:27;29.70;;;23.33;;
54921;SDS011;40824;45.116;21.296;2023-03-03T09:24:54;32.42;;;22.90;;
54921;SDS011;40824;45.116;21.296;2023-03-03T09:27:29;31.23;;;21.20;;
54921;SDS011;40824;45.116;21.296;2023-03-03T09:34:51;28.05;;;19.92;;
54921;SDS011;40824;45.116;21.296;2023-03-03T09:39:50;32.63;;;20.08;;
54921;SDS011;40824;45.116;21.296;2023-03-03T09:45:02;25.60;;;19.38;;
54921;SDS011;40824;45.116;21.296;2023-03-03T10:00:38;31.77;;;22.50;;
54921;SDS011;40824;45.116;21.296;2023-03-03T10:03:14;32.15;;;23.48;;
54921;SDS011;40824;45.116;21.296;2023-03-03T10:06:02;29.75;;;20.95;;
54921;SDS011;40824;45.116;21.296;2023-03-03T10:10:59;29.10;;;21.98;;
54921;SDS011;40824;45.116;21.296;2023-03-03T10:13:32;27.23;;;20.15;;
54921;SDS011;40824;45.116;21.296;2023-03-03T10:31:47;26.42;;;19.17;;
54921;SDS011;40824;45.116;21.296;2023-03-03T10:42:20;26.58;;;18.88;;
54921;SDS011;40824;45.116;21.296;2023-03-03T10:52:35;25.52;;;17.98;;
54921;SDS011;40824;45.116;21.296;2023-03-03T10:55:17;24.50;;;18.10;;
54921;SDS011;40824;45.116;21.296;2023-03-03T11:00:30;23.92;;;17.63;;
54921;SDS011;40824;45.116;21.296;2023-03-03T11:03:37;25.08;;;17.98;;
54921;SDS011;40824;45.116;21.296;2023-03-03T11:06:04;23.58;;;17.88;;
54921;SDS011;40824;45.116;21.296;2023-03-03T11:08:40;26.05;;;19.40;;
54921;SDS011;40824;45.116;21.296;2023-03-03T11:22:01;25.58;;;18.52;;
54921;SDS011;40824;45.116;21.296;2023-03-03T11:27:33;27.48;;;20.10;;
54921;SDS011;40824;45.116;21.296;2023-03-03T11:33:09;25.88;;;17.83;;
54921;SDS011;40824;45.116;21.296;2023-03-03T11:35:37;32.50;;;19.23;;
54921;SDS011;40824;45.116;21.296;2023-03-03T11:40:46;35.00;;;20.17;;
54921;SDS011;40824;45.116;21.296;2023-03-03T11:45:56;43.97;;;21.67;;
54921;SDS011;40824;45.116;21.296;2023-03-03T11:51:06;49.78;;;20.70;;
54921;SDS011;40824;45.116;21.296;2023-03-03T11:53:48;46.38;;;21.95;;
54921;SDS011;40824;45.116;21.296;2023-03-03T11:56:22;49.05;;;26.80;;
54921;SDS011;40824;45.116;21.296;2023-03-03T11:59:04;63.50;;;31.85;;
54921;SDS011;40824;45.116;21.296;2023-03-03T12:04:02;47.35;;;22.65;;
54921;SDS011;40824;45.116;21.296;2023-03-03T12:06:37;45.72;;;22.35;;
54921;SDS011;40824;45.116;21.296;2023-03-03T12:09:48;47.00;;;22.83;;
54921;SDS011;40824;45.116;21.296;2023-03-03T12:19:33;44.38;;;23.23;;
54921;SDS011;40824;45.116;21.296;2023-03-03T12:27:55;36.60;;;21.48;;
54921;SDS011;40824;45.116;21.296;2023-03-03T12:37:58;46.10;;;24.13;;
54921;SDS011;40824;45.116;21.296;2023-03-03T12:40:27;41.22;;;24.13;;
54921;SDS011;40824;45.116;21.296;2023-03-03T12:45:35;45.65;;;24.33;;
54921;SDS011;40824;45.116;21.296;2023-03-03T12:48:08;42.58;;;21.55;;
54921;SDS011;40824;45.116;21.296;2023-03-03T13:03:42;66.15;;;38.25;;
54921;SDS011;40824;45.116;21.296;2023-03-03T13:06:14;68.40;;;36.00;;
54921;SDS011;40824;45.116;21.296;2023-03-03T13:14:01;89.30;;;48.88;;
54921;SDS011;40824;45.116;21.296;2023-03-03T13:16:32;56.38;;;33.60;;
54921;SDS011;40824;45.116;21.296;2023-03-03T13:19:00;75.93;;;45.78;;
54921;SDS011;40824;45.116;21.296;2023-03-03T13:21:31;68.43;;;36.88;;
54921;SDS011;40824;45.116;21.296;2023-03-03T13:24:06;114.25;;;62.70;;
54921;SDS011;40824;45.116;21.296;2023-03-03T13:26:40;87.32;;;51.53;;
54921;SDS011;40824;45.116;21.296;2023-03-03T13:29:11;91.53;;;55.42;;
54921;SDS011;40824;45.116;21.296;2023-03-03T13:31:42;52.20;;;31.00;;
54921;SDS011;40824;45.116;21.296;2023-03-03T13:37:06;69.50;;;42.28;;
54921;SDS011;40824;45.116;21.296;2023-03-03T13:39:41;56.40;;;35.78;;
54921;SDS011;40824;45.116;21.296;2023-03-03T13:44:45;46.50;;;29.02;;
54921;SDS011;40824;45.116;21.296;2023-03-03T13:47:17;52.00;;;26.13;;
54921;SDS011;40824;45.116;21.296;2023-03-03T13:50:07;41.50;;;24.00;;
54921;SDS011;40824;45.116;21.296;2023-03-03T13:52:45;35.83;;;24.05;;
54921;SDS011;40824;45.116;21.296;2023-03-03T13:57:43;42.40;;;27.80;;
54921;SDS011;40824;45.116;21.296;2023-03-03T14:16:07;47.63;;;30.45;;
54921;SDS011;40824;45.116;21.296;2023-03-03T14:24:19;66.55;;;47.75;;
54921;SDS011;40824;45.116;21.296;2023-03-03T14:26:47;77.95;;;50.83;;
54921;SDS011;40824;45.116;21.296;2023-03-03T14:29:28;82.93;;;51.33;;
54921;SDS011;40824;45.116;21.296;2023-03-03T14:31:55;83.85;;;52.85;;
54921;SDS011;40824;45.116;21.296;2023-03-03T14:36:49;86.47;;;56.40;;
54921;SDS011;40824;45.116;21.296;2023-03-03T14:39:37;245.68;;;143.50;;
54921;SDS011;40824;45.116;21.296;2023-03-03T14:42:11;178.60;;;111.25;;
54921;SDS011;40824;45.116;21.296;2023-03-03T14:47:16;236.23;;;149.27;;
54921;SDS011;40824;45.116;21.296;2023-03-03T14:49:45;107.72;;;70.18;;
54921;SDS011;40824;45.116;21.296;2023-03-03T14:54:44;141.27;;;99.30;;
54921;SDS011;40824;45.116;21.296;2023-03-03T14:57:37;87.30;;;64.05;;
54921;SDS011;40824;45.116;21.296;2023-03-03T15:02:37;52.13;;;38.42;;
54921;SDS011;40824;45.116;21.296;2023-03-03T15:05:46;74.00;;;54.22;;
54921;SDS011;40824;45.116;21.296;2023-03-03T15:07:54;53.35;;;32.78;;
54921;SDS011;40824;45.116;21.296;2023-03-03T15:10:34;61.10;;;45.28;;
54921;SDS011;40824;45.116;21.296;2023-03-03T15:15:36;100.78;;;76.82;;
54921;SDS011;40824;45.116;21.296;2023-03-03T15:18:14;76.43;;;47.17;;
54921;SDS011;40824;45.116;21.296;2023-03-03T15:23:16;82.47;;;57.35;;
54921;SDS011;40824;45.116;21.296;2023-03-03T15:25:57;72.93;;;53.58;;
54921;SDS011;40824;45.116;21.296;2023-03-03T15:28:31;88.88;;;62.22;;
54921;SDS011;40824;45.116;21.296;2023-03-03T15:33:57;180.55;;;105.07;;
54921;SDS011;40824;45.116;21.296;2023-03-03T15:55:29;54.25;;;34.95;;
54921;SDS011;40824;45.116;21.296;2023-03-03T16:03:16;48.72;;;37.10;;
54921;SDS011;40824;45.116;21.296;2023-03-03T16:10:58;56.97;;;37.58;;
54921;SDS011;40824;45.116;21.296;2023-03-03T16:16:07;53.97;;;37.53;;
54921;SDS011;40824;45.116;21.296;2023-03-03T16:26:59;50.58;;;37.28;;
54921;SDS011;40824;45.116;21.296;2023-03-03T16:34:38;69.80;;;45.38;;
54921;SDS011;40824;45.116;21.296;2023-03-03T16:37:11;70.30;;;47.22;;
54921;SDS011;40824;45.116;21.296;2023-03-03T16:42:15;62.90;;;41.90;;
54921;SDS011;40824;45.116;21.296;2023-03-03T16:50:06;64.05;;;41.45;;
54921;SDS011;40824;45.116;21.296;2023-03-03T16:52:48;104.80;;;65.03;;
54921;SDS011;40824;45.116;21.296;2023-03-03T16:55:26;86.90;;;57.03;;
54921;SDS011;40824;45.116;21.296;2023-03-03T17:00:52;60.65;;;37.38;;
54921;SDS011;40824;45.116;21.296;2023-03-03T17:05:54;66.45;;;41.15;;
54921;SDS011;40824;45.116;21.296;2023-03-03T17:25:28;164.80;;;102.65;;
54921;SDS011;40824;45.116;21.296;2023-03-03T17:28:04;152.77;;;98.05;;
54921;SDS011;40824;45.116;21.296;2023-03-03T17:30:52;110.70;;;71.88;;
54921;SDS011;40824;45.116;21.296;2023-03-03T17:33:24;101.45;;;65.70;;
54921;SDS011;40824;45.116;21.296;2023-03-03T17:46:44;131.55;;;81.60;;
54921;SDS011;40824;45.116;21.296;2023-03-03T17:49:25;137.68;;;86.85;;
54921;SDS011;40824;45.116;21.296;2023-03-03T17:54:40;178.23;;;106.80;;
54921;SDS011;40824;45.116;21.296;2023-03-03T18:23:19;76.47;;;52.38;;
54921;SDS011;40824;45.116;21.296;2023-03-03T18:25:55;77.45;;;54.10;;
54921;SDS011;40824;45.116;21.296;2023-03-03T18:28:23;85.43;;;59.58;;
54921;SDS011;40824;45.116;21.296;2023-03-03T18:31:00;91.45;;;57.75;;
54921;SDS011;40824;45.116;21.296;2023-03-03T18:33:35;96.50;;;71.80;;
54921;SDS011;40824;45.116;21.296;2023-03-03T18:38:56;65.75;;;49.13;;
54921;SDS011;40824;45.116;21.296;2023-03-03T18:41:26;80.80;;;57.78;;
54921;SDS011;40824;45.116;21.296;2023-03-03T18:43:54;70.85;;;49.75;;
54921;SDS011;40824;45.116;21.296;2023-03-03T18:48:53;63.67;;;44.15;;
54921;SDS011;40824;45.116;21.296;2023-03-03T18:51:58;72.15;;;43.78;;
54921;SDS011;40824;45.116;21.296;2023-03-03T19:04:50;65.00;;;41.55;;
54921;SDS011;40824;45.116;21.296;2023-03-03T19:07:23;65.45;;;42.25;;
54921;SDS011;40824;45.116;21.296;2023-03-03T19:09:59;75.47;;;50.30;;
54921;SDS011;40824;45.116;21.296;2023-03-03T19:12:41;70.35;;;43.22;;
54921;SDS011;40824;45.116;21.296;2023-03-03T19:17:52;74.28;;;47.90;;
54921;SDS011;40824;45.116;21.296;2023-03-03T19:20:20;76.00;;;53.83;;
54921;SDS011;40824;45.116;21.296;2023-03-03T19:22:49;128.60;;;98.38;;
54921;SDS011;40824;45.116;21.296;2023-03-03T19:35:35;99.70;;;68.22;;
54921;SDS011;40824;45.116;21.296;2023-03-03T19:48:05;111.65;;;74.13;;
54921;SDS011;40824;45.116;21.296;2023-03-03T19:50:33;77.22;;;55.15;;
54921;SDS011;40824;45.116;21.296;2023-03-03T20:12:18;65.28;;;43.35;;
54921;SDS011;40824;45.116;21.296;2023-03-03T20:14:47;72.65;;;46.15;;
54921;SDS011;40824;45.116;21.296;2023-03-03T20:20:06;65.72;;;44.50;;
54921;SDS011;40824;45.116;21.296;2023-03-03T20:22:54;75.80;;;51.38;;
54921;SDS011;40824;45.116;21.296;2023-03-03T20:25:35;67.05;;;45.90;;
54921;SDS011;40824;45.116;21.296;2023-03-03T20:33:46;95.10;;;59.10;;
54921;SDS011;40824;45.116;21.296;2023-03-03T20:36:17;99.40;;;61.45;;
54921;SDS011;40824;45.116;21.296;2023-03-03T20:46:26;77.80;;;52.60;;
54921;SDS011;40824;45.116;21.296;2023-03-03T21:04:43;76.35;;;51.58;;
54921;SDS011;40824;45.116;21.296;2023-03-03T21:07:17;83.88;;;56.72;;
54921;SDS011;40824;45.116;21.296;2023-03-03T21:09:47;93.57;;;60.58;;
54921;SDS011;40824;45.116;21.296;2023-03-03T21:12:48;81.97;;;52.58;;